sensor_id;sensor_type;location;lat;lon;timestamp;P1;durP1;ratioP1;P2;durP2;ratioP2
75413;SDS011;64758;52.122;5.404;2023-06-05T00:01:59;5.95;;;2.88;;
75413;SDS011;64758;52.122;5.404;2023-06-05T00:04:25;4.13;;;2.38;;
75413;SDS011;64758;52.122;5.404;2023-06-05T00:06:52;4.13;;;2.38;;
75413;SDS011;64758;52.122;5.404;2023-06-05T00:09:18;4.35;;;2.58;;
75413;SDS011;64758;52.122;5.404;2023-06-05T00:11:45;4.30;;;2.80;;
75413;SDS011;64758;52.122;5.404;2023-06-05T00:14:12;4.68;;;2.67;;
75413;SDS011;64758;52.122;5.404;2023-06-05T00:16:38;5.07;;;2.97;;
75413;SDS011;64758;52.122;5.404;2023-06-05T00:19:05;5.38;;;2.72;;
75413;SDS011;64758;52.122;5.404;2023-06-05T00:21:32;6.40;;;3.03;;
75413;SDS011;64758;52.122;5.404;2023-06-05T00:23:59;5.77;;;2.97;;
75413;SDS011;64758;52.122;5.404;2023-06-05T00:26:26;8.32;;;3.00;;
75413;SDS011;64758;52.122;5.404;2023-06-05T00:28:52;4.53;;;3.30;;
75413;SDS011;64758;52.122;5.404;2023-06-05T00:31:19;8.23;;;2.92;;
75413;SDS011;64758;52.122;5.404;2023-06-05T00:33:48;3.90;;;2.50;;
75413;SDS011;64758;52.122;5.404;2023-06-05T00:36:15;5.73;;;2.60;;
75413;SDS011;64758;52.122;5.404;2023-06-05T00:38:41;5.47;;;3.03;;
75413;SDS011;64758;52.122;5.404;2023-06-05T00:41:08;5.97;;;3.40;;
75413;SDS011;64758;52.122;5.404;2023-06-05T00:43:35;4.25;;;3.03;;
75413;SDS011;64758;52.122;5.404;2023-06-05T00:46:04;6.45;;;3.35;;
75413;SDS011;64758;52.122;5.404;2023-06-05T00:48:31;5.83;;;3.10;;
75413;SDS011;64758;52.122;5.404;2023-06-05T00:50:59;7.70;;;3.15;;
75413;SDS011;64758;52.122;5.404;2023-06-05T00:53:26;4.80;;;3.22;;
75413;SDS011;64758;52.122;5.404;2023-06-05T00:55:54;7.95;;;3.47;;
75413;SDS011;64758;52.122;5.404;2023-06-05T00:58:20;6.85;;;3.08;;
75413;SDS011;64758;52.122;5.404;2023-06-05T01:00:47;6.90;;;3.37;;
75413;SDS011;64758;52.122;5.404;2023-06-05T01:03:15;5.93;;;3.20;;
75413;SDS011;64758;52.122;5.404;2023-06-05T01:05:43;6.60;;;3.50;;
75413;SDS011;64758;52.122;5.404;2023-06-05T01:08:10;5.88;;;2.92;;
75413;SDS011;64758;52.122;5.404;2023-06-05T01:10:40;6.72;;;3.33;;
75413;SDS011;64758;52.122;5.404;2023-06-05T01:13:13;5.00;;;3.70;;
75413;SDS011;64758;52.122;5.404;2023-06-05T01:15:44;6.25;;;3.30;;
75413;SDS011;64758;52.122;5.404;2023-06-05T01:18:12;5.60;;;3.47;;
75413;SDS011;64758;52.122;5.404;2023-06-05T01:20:39;6.78;;;3.20;;
75413;SDS011;64758;52.122;5.404;2023-06-05T01:23:08;6.25;;;3.10;;
75413;SDS011;64758;52.122;5.404;2023-06-05T01:25:35;7.13;;;3.13;;
75413;SDS011;64758;52.122;5.404;2023-06-05T01:28:13;9.25;;;3.72;;
75413;SDS011;64758;52.122;5.404;2023-06-05T01:33:35;5.15;;;3.70;;
75413;SDS011;64758;52.122;5.404;2023-06-05T01:36:13;8.30;;;3.35;;
75413;SDS011;64758;52.122;5.404;2023-06-05T01:38:40;5.87;;;3.50;;
75413;SDS011;64758;52.122;5.404;2023-06-05T01:41:09;5.50;;;3.50;;
75413;SDS011;64758;52.122;5.404;2023-06-05T01:43:37;6.03;;;3.53;;
75413;SDS011;64758;52.122;5.404;2023-06-05T01:46:05;6.50;;;3.88;;
75413;SDS011;64758;52.122;5.404;2023-06-05T01:48:33;6.05;;;3.40;;
75413;SDS011;64758;52.122;5.404;2023-06-05T01:51:01;6.87;;;3.53;;
75413;SDS011;64758;52.122;5.404;2023-06-05T01:53:28;5.80;;;3.55;;
75413;SDS011;64758;52.122;5.404;2023-06-05T01:55:55;6.80;;;3.30;;
75413;SDS011;64758;52.122;5.404;2023-06-05T01:58:26;6.13;;;3.33;;
75413;SDS011;64758;52.122;5.404;2023-06-05T02:00:53;5.57;;;4.00;;
75413;SDS011;64758;52.122;5.404;2023-06-05T02:03:20;7.00;;;3.57;;
75413;SDS011;64758;52.122;5.404;2023-06-05T02:05:47;5.78;;;3.55;;
75413;SDS011;64758;52.122;5.404;2023-06-05T02:08:14;6.45;;;3.40;;
75413;SDS011;64758;52.122;5.404;2023-06-05T02:10:46;7.32;;;4.18;;
75413;SDS011;64758;52.122;5.404;2023-06-05T02:13:13;9.32;;;4.45;;
75413;SDS011;64758;52.122;5.404;2023-06-05T02:15:41;6.00;;;3.80;;
75413;SDS011;64758;52.122;5.404;2023-06-05T02:18:11;8.05;;;4.00;;
75413;SDS011;64758;52.122;5.404;2023-06-05T02:20:40;6.72;;;3.90;;
75413;SDS011;64758;52.122;5.404;2023-06-05T02:23:07;7.28;;;3.58;;
75413;SDS011;64758;52.122;5.404;2023-06-05T02:25:34;7.07;;;3.25;;
75413;SDS011;64758;52.122;5.404;2023-06-05T02:28:01;9.52;;;3.65;;
75413;SDS011;64758;52.122;5.404;2023-06-05T02:30:28;5.80;;;3.20;;
75413;SDS011;64758;52.122;5.404;2023-06-05T02:32:54;7.97;;;3.53;;
75413;SDS011;64758;52.122;5.404;2023-06-05T02:35:27;6.72;;;3.92;;
75413;SDS011;64758;52.122;5.404;2023-06-05T02:37:55;6.28;;;3.72;;
75413;SDS011;64758;52.122;5.404;2023-06-05T02:40:22;8.87;;;4.07;;
75413;SDS011;64758;52.122;5.404;2023-06-05T02:42:49;6.60;;;3.60;;
75413;SDS011;64758;52.122;5.404;2023-06-05T02:45:16;10.10;;;3.90;;
75413;SDS011;64758;52.122;5.404;2023-06-05T02:47:43;6.53;;;3.65;;
75413;SDS011;64758;52.122;5.404;2023-06-05T02:50:10;8.48;;;3.47;;
75413;SDS011;64758;52.122;5.404;2023-06-05T02:52:36;5.60;;;3.33;;
75413;SDS011;64758;52.122;5.404;2023-06-05T02:55:05;8.32;;;3.40;;
75413;SDS011;64758;52.122;5.404;2023-06-05T02:57:34;7.20;;;3.67;;
75413;SDS011;64758;52.122;5.404;2023-06-05T03:00:09;8.90;;;4.30;;
75413;SDS011;64758;52.122;5.404;2023-06-05T03:02:36;6.07;;;4.00;;
75413;SDS011;64758;52.122;5.404;2023-06-05T03:05:03;7.30;;;3.70;;
75413;SDS011;64758;52.122;5.404;2023-06-05T03:07:30;5.22;;;3.50;;
75413;SDS011;64758;52.122;5.404;2023-06-05T03:10:00;7.95;;;4.43;;
75413;SDS011;64758;52.122;5.404;2023-06-05T03:12:27;6.75;;;3.92;;
75413;SDS011;64758;52.122;5.404;2023-06-05T03:14:54;5.38;;;4.13;;
75413;SDS011;64758;52.122;5.404;2023-06-05T03:17:20;5.30;;;3.53;;
75413;SDS011;64758;52.122;5.404;2023-06-05T03:19:49;6.15;;;3.95;;
75413;SDS011;64758;52.122;5.404;2023-06-05T03:22:17;8.25;;;4.03;;
75413;SDS011;64758;52.122;5.404;2023-06-05T03:24:44;7.93;;;4.10;;
75413;SDS011;64758;52.122;5.404;2023-06-05T03:27:11;5.70;;;3.83;;
75413;SDS011;64758;52.122;5.404;2023-06-05T03:29:39;5.43;;;3.83;;
75413;SDS011;64758;52.122;5.404;2023-06-05T03:32:05;7.35;;;3.88;;
75413;SDS011;64758;52.122;5.404;2023-06-05T03:34:32;10.05;;;4.25;;
75413;SDS011;64758;52.122;5.404;2023-06-05T03:36:58;8.68;;;4.00;;
75413;SDS011;64758;52.122;5.404;2023-06-05T03:39:25;5.97;;;4.15;;
75413;SDS011;64758;52.122;5.404;2023-06-05T03:41:52;5.87;;;4.03;;
75413;SDS011;64758;52.122;5.404;2023-06-05T03:44:18;7.13;;;4.18;;
75413;SDS011;64758;52.122;5.404;2023-06-05T03:46:46;9.07;;;4.57;;
75413;SDS011;64758;52.122;5.404;2023-06-05T03:49:13;9.50;;;4.50;;
75413;SDS011;64758;52.122;5.404;2023-06-05T03:51:39;6.60;;;4.47;;
75413;SDS011;64758;52.122;5.404;2023-06-05T03:54:10;8.23;;;3.97;;
75413;SDS011;64758;52.122;5.404;2023-06-05T03:56:39;9.05;;;4.10;;
75413;SDS011;64758;52.122;5.404;2023-06-05T03:59:09;10.10;;;5.05;;
75413;SDS011;64758;52.122;5.404;2023-06-05T04:01:42;8.20;;;4.75;;
75413;SDS011;64758;52.122;5.404;2023-06-05T04:04:09;8.95;;;4.78;;
75413;SDS011;64758;52.122;5.404;2023-06-05T04:06:36;8.47;;;4.53;;
75413;SDS011;64758;52.122;5.404;2023-06-05T04:09:03;7.43;;;4.57;;
75413;SDS011;64758;52.122;5.404;2023-06-05T04:11:48;9.93;;;4.43;;
75413;SDS011;64758;52.122;5.404;2023-06-05T04:14:15;8.45;;;4.55;;
75413;SDS011;64758;52.122;5.404;2023-06-05T04:16:42;8.65;;;4.65;;
75413;SDS011;64758;52.122;5.404;2023-06-05T04:19:10;8.48;;;4.90;;
75413;SDS011;64758;52.122;5.404;2023-06-05T04:21:38;10.23;;;4.88;;
75413;SDS011;64758;52.122;5.404;2023-06-05T04:24:05;7.30;;;4.70;;
75413;SDS011;64758;52.122;5.404;2023-06-05T04:26:35;9.30;;;4.47;;
75413;SDS011;64758;52.122;5.404;2023-06-05T04:29:03;9.23;;;4.70;;
75413;SDS011;64758;52.122;5.404;2023-06-05T04:31:36;11.43;;;4.88;;
75413;SDS011;64758;52.122;5.404;2023-06-05T04:34:07;9.07;;;4.40;;
75413;SDS011;64758;52.122;5.404;2023-06-05T04:36:34;10.70;;;4.93;;
75413;SDS011;64758;52.122;5.404;2023-06-05T04:39:03;9.60;;;4.47;;
75413;SDS011;64758;52.122;5.404;2023-06-05T04:41:30;8.18;;;4.22;;
75413;SDS011;64758;52.122;5.404;2023-06-05T04:43:58;8.70;;;4.20;;
75413;SDS011;64758;52.122;5.404;2023-06-05T04:46:28;10.13;;;4.90;;
75413;SDS011;64758;52.122;5.404;2023-06-05T04:48:55;8.55;;;4.63;;
75413;SDS011;64758;52.122;5.404;2023-06-05T04:51:24;8.43;;;4.65;;
75413;SDS011;64758;52.122;5.404;2023-06-05T04:53:51;8.95;;;4.97;;
75413;SDS011;64758;52.122;5.404;2023-06-05T04:56:19;9.53;;;4.80;;
75413;SDS011;64758;52.122;5.404;2023-06-05T04:58:49;11.55;;;5.15;;
75413;SDS011;64758;52.122;5.404;2023-06-05T05:01:17;9.18;;;4.90;;
75413;SDS011;64758;52.122;5.404;2023-06-05T05:03:44;8.95;;;5.00;;
75413;SDS011;64758;52.122;5.404;2023-06-05T05:06:15;8.32;;;4.82;;
75413;SDS011;64758;52.122;5.404;2023-06-05T05:08:45;10.57;;;4.80;;
75413;SDS011;64758;52.122;5.404;2023-06-05T05:11:14;8.43;;;4.82;;
75413;SDS011;64758;52.122;5.404;2023-06-05T05:13:41;7.90;;;4.78;;
75413;SDS011;64758;52.122;5.404;2023-06-05T05:16:09;9.45;;;4.78;;
75413;SDS011;64758;52.122;5.404;2023-06-05T05:18:42;10.93;;;5.15;;
75413;SDS011;64758;52.122;5.404;2023-06-05T05:21:10;8.50;;;5.20;;
75413;SDS011;64758;52.122;5.404;2023-06-05T05:23:36;8.80;;;4.30;;
75413;SDS011;64758;52.122;5.404;2023-06-05T05:26:03;9.40;;;4.68;;
75413;SDS011;64758;52.122;5.404;2023-06-05T05:28:31;9.27;;;4.75;;
75413;SDS011;64758;52.122;5.404;2023-06-05T05:30:58;13.05;;;4.95;;
75413;SDS011;64758;52.122;5.404;2023-06-05T05:33:25;10.93;;;4.50;;
75413;SDS011;64758;52.122;5.404;2023-06-05T05:35:51;9.38;;;4.85;;
75413;SDS011;64758;52.122;5.404;2023-06-05T05:38:18;10.55;;;4.60;;
75413;SDS011;64758;52.122;5.404;2023-06-05T05:40:44;10.35;;;4.60;;
75413;SDS011;64758;52.122;5.404;2023-06-05T05:43:11;7.50;;;4.53;;
75413;SDS011;64758;52.122;5.404;2023-06-05T05:45:38;6.90;;;4.40;;
75413;SDS011;64758;52.122;5.404;2023-06-05T05:48:06;9.23;;;5.13;;
75413;SDS011;64758;52.122;5.404;2023-06-05T05:50:33;7.55;;;4.75;;
75413;SDS011;64758;52.122;5.404;2023-06-05T05:53:00;7.63;;;4.47;;
75413;SDS011;64758;52.122;5.404;2023-06-05T05:55:26;9.25;;;4.90;;
75413;SDS011;64758;52.122;5.404;2023-06-05T05:57:53;7.63;;;4.57;;
75413;SDS011;64758;52.122;5.404;2023-06-05T06:00:20;8.00;;;5.10;;
75413;SDS011;64758;52.122;5.404;2023-06-05T06:02:47;10.10;;;5.10;;
75413;SDS011;64758;52.122;5.404;2023-06-05T06:05:14;12.43;;;5.07;;
75413;SDS011;64758;52.122;5.404;2023-06-05T06:07:40;6.72;;;4.60;;
75413;SDS011;64758;52.122;5.404;2023-06-05T06:10:09;9.57;;;5.23;;
75413;SDS011;64758;52.122;5.404;2023-06-05T06:12:38;7.97;;;5.22;;
75413;SDS011;64758;52.122;5.404;2023-06-05T06:15:05;6.75;;;4.82;;
75413;SDS011;64758;52.122;5.404;2023-06-05T06:17:33;8.88;;;5.20;;
75413;SDS011;64758;52.122;5.404;2023-06-05T06:19:59;11.65;;;5.65;;
75413;SDS011;64758;52.122;5.404;2023-06-05T06:22:26;10.60;;;5.00;;
75413;SDS011;64758;52.122;5.404;2023-06-05T06:24:53;7.85;;;5.18;;
75413;SDS011;64758;52.122;5.404;2023-06-05T06:27:20;15.10;;;5.78;;
75413;SDS011;64758;52.122;5.404;2023-06-05T06:30:00;9.45;;;5.35;;
75413;SDS011;64758;52.122;5.404;2023-06-05T06:32:28;10.02;;;5.13;;
75413;SDS011;64758;52.122;5.404;2023-06-05T06:34:57;8.97;;;4.70;;
75413;SDS011;64758;52.122;5.404;2023-06-05T06:37:24;8.65;;;5.45;;
75413;SDS011;64758;52.122;5.404;2023-06-05T06:39:51;6.93;;;5.40;;
75413;SDS011;64758;52.122;5.404;2023-06-05T06:42:18;11.23;;;5.10;;
75413;SDS011;64758;52.122;5.404;2023-06-05T06:44:44;8.13;;;4.95;;
75413;SDS011;64758;52.122;5.404;2023-06-05T06:47:11;7.63;;;4.50;;
75413;SDS011;64758;52.122;5.404;2023-06-05T06:49:38;9.23;;;5.20;;
75413;SDS011;64758;52.122;5.404;2023-06-05T06:52:05;10.18;;;5.13;;
75413;SDS011;64758;52.122;5.404;2023-06-05T06:54:32;8.82;;;5.07;;
75413;SDS011;64758;52.122;5.404;2023-06-05T06:56:59;10.15;;;5.40;;
75413;SDS011;64758;52.122;5.404;2023-06-05T06:59:25;7.87;;;4.70;;
75413;SDS011;64758;52.122;5.404;2023-06-05T07:02:08;8.40;;;4.75;;
75413;SDS011;64758;52.122;5.404;2023-06-05T07:04:35;10.65;;;5.07;;
75413;SDS011;64758;52.122;5.404;2023-06-05T07:07:03;7.45;;;4.68;;
75413;SDS011;64758;52.122;5.404;2023-06-05T07:09:30;7.72;;;4.38;;
75413;SDS011;64758;52.122;5.404;2023-06-05T07:11:56;7.40;;;4.43;;
75413;SDS011;64758;52.122;5.404;2023-06-05T07:14:24;9.15;;;5.28;;
75413;SDS011;64758;52.122;5.404;2023-06-05T07:16:51;8.63;;;5.13;;
75413;SDS011;64758;52.122;5.404;2023-06-05T07:19:22;7.07;;;4.43;;
75413;SDS011;64758;52.122;5.404;2023-06-05T07:21:48;7.68;;;4.75;;
75413;SDS011;64758;52.122;5.404;2023-06-05T07:24:15;8.43;;;4.93;;
75413;SDS011;64758;52.122;5.404;2023-06-05T07:26:44;8.35;;;5.18;;
75413;SDS011;64758;52.122;5.404;2023-06-05T07:29:11;9.50;;;4.57;;
75413;SDS011;64758;52.122;5.404;2023-06-05T07:31:38;9.35;;;4.80;;
75413;SDS011;64758;52.122;5.404;2023-06-05T07:34:05;7.13;;;4.40;;
75413;SDS011;64758;52.122;5.404;2023-06-05T07:36:31;7.93;;;4.40;;
75413;SDS011;64758;52.122;5.404;2023-06-05T07:38:59;7.32;;;4.35;;
75413;SDS011;64758;52.122;5.404;2023-06-05T07:41:26;8.20;;;4.85;;
75413;SDS011;64758;52.122;5.404;2023-06-05T07:43:52;9.00;;;4.95;;
75413;SDS011;64758;52.122;5.404;2023-06-05T07:46:19;7.95;;;4.28;;
75413;SDS011;64758;52.122;5.404;2023-06-05T07:48:46;7.13;;;4.83;;
75413;SDS011;64758;52.122;5.404;2023-06-05T07:51:12;7.63;;;4.57;;
75413;SDS011;64758;52.122;5.404;2023-06-05T07:53:39;7.07;;;4.65;;
75413;SDS011;64758;52.122;5.404;2023-06-05T07:56:06;6.55;;;4.90;;
75413;SDS011;64758;52.122;5.404;2023-06-05T07:58:32;7.20;;;4.40;;
75413;SDS011;64758;52.122;5.404;2023-06-05T08:01:01;8.20;;;4.80;;
75413;SDS011;64758;52.122;5.404;2023-06-05T08:03:28;7.50;;;4.28;;
75413;SDS011;64758;52.122;5.404;2023-06-05T08:05:55;10.20;;;4.32;;
75413;SDS011;64758;52.122;5.404;2023-06-05T08:08:23;10.45;;;4.93;;
75413;SDS011;64758;52.122;5.404;2023-06-05T08:10:49;6.85;;;4.28;;
75413;SDS011;64758;52.122;5.404;2023-06-05T08:13:16;7.30;;;4.97;;
75413;SDS011;64758;52.122;5.404;2023-06-05T08:15:43;7.80;;;4.55;;
75413;SDS011;64758;52.122;5.404;2023-06-05T08:18:10;8.38;;;5.30;;
75413;SDS011;64758;52.122;5.404;2023-06-05T08:20:36;7.15;;;5.00;;
75413;SDS011;64758;52.122;5.404;2023-06-05T08:23:03;5.93;;;4.80;;
75413;SDS011;64758;52.122;5.404;2023-06-05T08:25:33;8.37;;;4.70;;
75413;SDS011;64758;52.122;5.404;2023-06-05T08:27:59;9.30;;;4.75;;
75413;SDS011;64758;52.122;5.404;2023-06-05T08:30:26;7.25;;;4.38;;
75413;SDS011;64758;52.122;5.404;2023-06-05T08:32:52;5.47;;;4.15;;
75413;SDS011;64758;52.122;5.404;2023-06-05T08:35:19;6.40;;;4.10;;
75413;SDS011;64758;52.122;5.404;2023-06-05T08:37:46;6.93;;;4.40;;
75413;SDS011;64758;52.122;5.404;2023-06-05T08:40:12;6.85;;;4.32;;
75413;SDS011;64758;52.122;5.404;2023-06-05T08:42:41;5.82;;;3.88;;
75413;SDS011;64758;52.122;5.404;2023-06-05T08:45:08;6.82;;;4.63;;
75413;SDS011;64758;52.122;5.404;2023-06-05T08:47:35;6.18;;;4.65;;
75413;SDS011;64758;52.122;5.404;2023-06-05T08:50:05;6.63;;;4.43;;
75413;SDS011;64758;52.122;5.404;2023-06-05T08:52:33;7.50;;;4.97;;
75413;SDS011;64758;52.122;5.404;2023-06-05T08:55:03;8.55;;;4.68;;
75413;SDS011;64758;52.122;5.404;2023-06-05T08:57:34;7.05;;;4.35;;
75413;SDS011;64758;52.122;5.404;2023-06-05T09:00:05;8.85;;;4.82;;
75413;SDS011;64758;52.122;5.404;2023-06-05T09:02:34;6.30;;;4.87;;
75413;SDS011;64758;52.122;5.404;2023-06-05T09:05:00;7.57;;;4.70;;
75413;SDS011;64758;52.122;5.404;2023-06-05T09:07:30;9.88;;;4.50;;
75413;SDS011;64758;52.122;5.404;2023-06-05T09:09:59;6.50;;;4.43;;
75413;SDS011;64758;52.122;5.404;2023-06-05T09:12:26;7.20;;;4.82;;
75413;SDS011;64758;52.122;5.404;2023-06-05T09:14:52;7.80;;;4.27;;
75413;SDS011;64758;52.122;5.404;2023-06-05T09:17:22;6.00;;;4.60;;
75413;SDS011;64758;52.122;5.404;2023-06-05T09:19:49;7.15;;;4.50;;
75413;SDS011;64758;52.122;5.404;2023-06-05T09:22:16;6.63;;;4.10;;
75413;SDS011;64758;52.122;5.404;2023-06-05T09:24:59;7.28;;;4.30;;
75413;SDS011;64758;52.122;5.404;2023-06-05T09:27:27;6.77;;;4.60;;
75413;SDS011;64758;52.122;5.404;2023-06-05T09:30:01;7.75;;;4.32;;
75413;SDS011;64758;52.122;5.404;2023-06-05T09:32:29;6.88;;;4.88;;
75413;SDS011;64758;52.122;5.404;2023-06-05T09:34:56;7.53;;;4.03;;
75413;SDS011;64758;52.122;5.404;2023-06-05T09:37:32;5.05;;;4.00;;
75413;SDS011;64758;52.122;5.404;2023-06-05T09:40:02;4.70;;;3.80;;
75413;SDS011;64758;52.122;5.404;2023-06-05T09:42:31;5.93;;;4.10;;
75413;SDS011;64758;52.122;5.404;2023-06-05T09:44:59;5.28;;;3.78;;
75413;SDS011;64758;52.122;5.404;2023-06-05T09:47:26;4.93;;;3.70;;
75413;SDS011;64758;52.122;5.404;2023-06-05T09:49:56;5.70;;;3.80;;
75413;SDS011;64758;52.122;5.404;2023-06-05T09:52:23;5.83;;;3.77;;
75413;SDS011;64758;52.122;5.404;2023-06-05T09:54:49;6.60;;;4.10;;
75413;SDS011;64758;52.122;5.404;2023-06-05T09:57:20;5.90;;;3.78;;
75413;SDS011;64758;52.122;5.404;2023-06-05T09:59:51;5.47;;;3.50;;
75413;SDS011;64758;52.122;5.404;2023-06-05T10:02:23;5.95;;;4.20;;
75413;SDS011;64758;52.122;5.404;2023-06-05T10:04:56;4.90;;;3.57;;
75413;SDS011;64758;52.122;5.404;2023-06-05T10:07:25;5.45;;;3.40;;
75413;SDS011;64758;52.122;5.404;2023-06-05T10:09:53;5.20;;;3.90;;
75413;SDS011;64758;52.122;5.404;2023-06-05T10:12:20;6.55;;;3.53;;
75413;SDS011;64758;52.122;5.404;2023-06-05T10:14:50;6.93;;;3.92;;
75413;SDS011;64758;52.122;5.404;2023-06-05T10:17:18;6.30;;;3.90;;
75413;SDS011;64758;52.122;5.404;2023-06-05T10:19:46;6.10;;;3.60;;
75413;SDS011;64758;52.122;5.404;2023-06-05T10:22:13;5.90;;;3.67;;
75413;SDS011;64758;52.122;5.404;2023-06-05T10:24:44;6.78;;;3.20;;
75413;SDS011;64758;52.122;5.404;2023-06-05T10:38:27;8.10;;;4.05;;
75413;SDS011;64758;52.122;5.404;2023-06-05T10:40:55;5.03;;;3.42;;
75413;SDS011;64758;52.122;5.404;2023-06-05T10:43:33;6.13;;;3.40;;
75413;SDS011;64758;52.122;5.404;2023-06-05T10:46:02;9.63;;;3.33;;
75413;SDS011;64758;52.122;5.404;2023-06-05T10:51:36;5.10;;;2.95;;
75413;SDS011;64758;52.122;5.404;2023-06-05T10:54:52;5.05;;;3.03;;
75413;SDS011;64758;52.122;5.404;2023-06-05T10:56:59;4.70;;;2.90;;
75413;SDS011;64758;52.122;5.404;2023-06-05T11:15:03;3.53;;;2.65;;
75413;SDS011;64758;52.122;5.404;2023-06-05T11:17:34;5.85;;;2.88;;
75413;SDS011;64758;52.122;5.404;2023-06-05T11:20:02;5.18;;;2.58;;
75413;SDS011;64758;52.122;5.404;2023-06-05T11:22:33;4.37;;;3.00;;
75413;SDS011;64758;52.122;5.404;2023-06-05T11:27:48;4.32;;;2.80;;
75413;SDS011;64758;52.122;5.404;2023-06-05T11:30:19;2.80;;;2.38;;
75413;SDS011;64758;52.122;5.404;2023-06-05T11:35:39;4.13;;;2.50;;
75413;SDS011;64758;52.122;5.404;2023-06-05T11:40:35;3.50;;;2.50;;
75413;SDS011;64758;52.122;5.404;2023-06-05T11:43:02;4.57;;;2.83;;
75413;SDS011;64758;52.122;5.404;2023-06-05T11:45:32;3.85;;;3.10;;
75413;SDS011;64758;52.122;5.404;2023-06-05T11:48:03;4.23;;;3.00;;
75413;SDS011;64758;52.122;5.404;2023-06-05T11:50:31;5.65;;;3.35;;
75413;SDS011;64758;52.122;5.404;2023-06-05T11:53:08;5.15;;;2.63;;
75413;SDS011;64758;52.122;5.404;2023-06-05T11:55:35;5.53;;;2.58;;
75413;SDS011;64758;52.122;5.404;2023-06-05T11:58:23;3.97;;;2.67;;
75413;SDS011;64758;52.122;5.404;2023-06-05T12:00:51;5.20;;;2.70;;
75413;SDS011;64758;52.122;5.404;2023-06-05T12:03:21;4.05;;;2.40;;
75413;SDS011;64758;52.122;5.404;2023-06-05T12:05:48;4.18;;;3.17;;
75413;SDS011;64758;52.122;5.404;2023-06-05T12:08:25;5.88;;;3.08;;
75413;SDS011;64758;52.122;5.404;2023-06-05T12:10:53;3.92;;;2.75;;
75413;SDS011;64758;52.122;5.404;2023-06-05T12:13:22;5.03;;;2.60;;
75413;SDS011;64758;52.122;5.404;2023-06-05T12:15:58;4.80;;;3.03;;
75413;SDS011;64758;52.122;5.404;2023-06-05T12:18:32;6.18;;;3.30;;
75413;SDS011;64758;52.122;5.404;2023-06-05T12:21:00;3.30;;;2.75;;
75413;SDS011;64758;52.122;5.404;2023-06-05T12:23:30;6.18;;;2.72;;
75413;SDS011;64758;52.122;5.404;2023-06-05T12:25:58;5.47;;;2.63;;
75413;SDS011;64758;52.122;5.404;2023-06-05T12:28:27;6.88;;;3.25;;
75413;SDS011;64758;52.122;5.404;2023-06-05T12:30:54;4.88;;;2.80;;
75413;SDS011;64758;52.122;5.404;2023-06-05T12:33:22;5.32;;;2.72;;
75413;SDS011;64758;52.122;5.404;2023-06-05T12:36:03;4.32;;;2.97;;
75413;SDS011;64758;52.122;5.404;2023-06-05T12:38:37;6.37;;;3.40;;
75413;SDS011;64758;52.122;5.404;2023-06-05T12:41:04;5.20;;;2.75;;
75413;SDS011;64758;52.122;5.404;2023-06-05T12:43:34;6.95;;;3.58;;
75413;SDS011;64758;52.122;5.404;2023-06-05T12:46:01;5.72;;;3.20;;
75413;SDS011;64758;52.122;5.404;2023-06-05T12:48:29;4.82;;;3.03;;
75413;SDS011;64758;52.122;5.404;2023-06-05T12:50:56;7.57;;;3.10;;
75413;SDS011;64758;52.122;5.404;2023-06-05T12:53:22;4.22;;;3.10;;
75413;SDS011;64758;52.122;5.404;2023-06-05T12:55:49;4.93;;;3.10;;
75413;SDS011;64758;52.122;5.404;2023-06-05T12:58:16;3.92;;;3.03;;
75413;SDS011;64758;52.122;5.404;2023-06-05T13:00:43;4.82;;;3.22;;
75413;SDS011;64758;52.122;5.404;2023-06-05T13:03:10;5.23;;;3.40;;
75413;SDS011;64758;52.122;5.404;2023-06-05T13:05:39;4.72;;;3.08;;
75413;SDS011;64758;52.122;5.404;2023-06-05T13:08:06;7.15;;;4.28;;
75413;SDS011;64758;52.122;5.404;2023-06-05T13:10:32;5.55;;;3.60;;
75413;SDS011;64758;52.122;5.404;2023-06-05T13:12:59;6.28;;;3.28;;
75413;SDS011;64758;52.122;5.404;2023-06-05T13:15:25;4.50;;;3.37;;
75413;SDS011;64758;52.122;5.404;2023-06-05T13:17:52;7.72;;;3.47;;
75413;SDS011;64758;52.122;5.404;2023-06-05T13:20:19;6.75;;;3.45;;
75413;SDS011;64758;52.122;5.404;2023-06-05T13:22:45;6.43;;;3.35;;
75413;SDS011;64758;52.122;5.404;2023-06-05T13:25:12;5.00;;;3.60;;
75413;SDS011;64758;52.122;5.404;2023-06-05T13:27:39;5.20;;;3.00;;
75413;SDS011;64758;52.122;5.404;2023-06-05T13:30:06;5.43;;;3.10;;
75413;SDS011;64758;52.122;5.404;2023-06-05T13:32:33;4.72;;;3.33;;
75413;SDS011;64758;52.122;5.404;2023-06-05T13:35:00;7.38;;;3.33;;
75413;SDS011;64758;52.122;5.404;2023-06-05T13:37:27;6.70;;;3.85;;
75413;SDS011;64758;52.122;5.404;2023-06-05T13:39:53;6.10;;;3.73;;
75413;SDS011;64758;52.122;5.404;2023-06-05T13:42:20;7.53;;;3.08;;
75413;SDS011;64758;52.122;5.404;2023-06-05T13:44:47;4.68;;;2.92;;
75413;SDS011;64758;52.122;5.404;2023-06-05T13:47:13;5.32;;;3.60;;
75413;SDS011;64758;52.122;5.404;2023-06-05T13:49:40;3.63;;;3.05;;
75413;SDS011;64758;52.122;5.404;2023-06-05T13:52:07;7.17;;;3.30;;
75413;SDS011;64758;52.122;5.404;2023-06-05T13:54:34;6.22;;;3.72;;
75413;SDS011;64758;52.122;5.404;2023-06-05T13:57:01;3.85;;;3.33;;
75413;SDS011;64758;52.122;5.404;2023-06-05T13:59:28;4.43;;;3.42;;
75413;SDS011;64758;52.122;5.404;2023-06-05T14:01:55;6.40;;;3.50;;
75413;SDS011;64758;52.122;5.404;2023-06-05T14:04:22;5.20;;;3.63;;
75413;SDS011;64758;52.122;5.404;2023-06-05T14:06:49;6.70;;;3.40;;
75413;SDS011;64758;52.122;5.404;2023-06-05T14:09:15;4.65;;;3.70;;
75413;SDS011;64758;52.122;5.404;2023-06-05T14:11:42;6.13;;;3.60;;
75413;SDS011;64758;52.122;5.404;2023-06-05T14:14:11;4.43;;;3.45;;
75413;SDS011;64758;52.122;5.404;2023-06-05T14:16:37;8.50;;;3.17;;
75413;SDS011;64758;52.122;5.404;2023-06-05T14:19:04;7.13;;;3.80;;
75413;SDS011;64758;52.122;5.404;2023-06-05T14:21:31;6.45;;;4.05;;
75413;SDS011;64758;52.122;5.404;2023-06-05T14:23:58;6.35;;;3.40;;
75413;SDS011;64758;52.122;5.404;2023-06-05T14:26:24;6.00;;;4.00;;
75413;SDS011;64758;52.122;5.404;2023-06-05T14:28:51;4.13;;;3.53;;
75413;SDS011;64758;52.122;5.404;2023-06-05T14:31:18;4.60;;;3.30;;
75413;SDS011;64758;52.122;5.404;2023-06-05T14:33:45;4.57;;;4.00;;
75413;SDS011;64758;52.122;5.404;2023-06-05T14:36:11;7.45;;;3.78;;
75413;SDS011;64758;52.122;5.404;2023-06-05T14:38:38;5.38;;;3.38;;
75413;SDS011;64758;52.122;5.404;2023-06-05T14:41:04;4.90;;;3.67;;
75413;SDS011;64758;52.122;5.404;2023-06-05T14:43:31;5.38;;;3.50;;
75413;SDS011;64758;52.122;5.404;2023-06-05T14:45:58;4.22;;;3.35;;
75413;SDS011;64758;52.122;5.404;2023-06-05T14:48:26;5.43;;;3.42;;
75413;SDS011;64758;52.122;5.404;2023-06-05T14:50:53;7.45;;;3.85;;
75413;SDS011;64758;52.122;5.404;2023-06-05T14:53:19;3.47;;;3.17;;
75413;SDS011;64758;52.122;5.404;2023-06-05T14:55:46;5.18;;;3.45;;
75413;SDS011;64758;52.122;5.404;2023-06-05T14:58:13;4.65;;;3.80;;
75413;SDS011;64758;52.122;5.404;2023-06-05T15:00:39;6.20;;;3.80;;
75413;SDS011;64758;52.122;5.404;2023-06-05T15:03:07;6.97;;;3.88;;
75413;SDS011;64758;52.122;5.404;2023-06-05T15:05:34;9.47;;;3.87;;
75413;SDS011;64758;52.122;5.404;2023-06-05T15:08:01;4.63;;;3.85;;
75413;SDS011;64758;52.122;5.404;2023-06-05T15:10:27;7.22;;;3.95;;
75413;SDS011;64758;52.122;5.404;2023-06-05T15:12:54;4.97;;;3.80;;
75413;SDS011;64758;52.122;5.404;2023-06-05T15:15:24;5.72;;;3.42;;
75413;SDS011;64758;52.122;5.404;2023-06-05T15:17:51;3.70;;;3.07;;
75413;SDS011;64758;52.122;5.404;2023-06-05T15:20:21;4.75;;;3.78;;
75413;SDS011;64758;52.122;5.404;2023-06-05T15:22:51;5.90;;;3.92;;
75413;SDS011;64758;52.122;5.404;2023-06-05T15:25:38;6.38;;;4.22;;
75413;SDS011;64758;52.122;5.404;2023-06-05T15:28:05;6.03;;;3.83;;
75413;SDS011;64758;52.122;5.404;2023-06-05T15:30:31;8.60;;;3.97;;
75413;SDS011;64758;52.122;5.404;2023-06-05T15:32:58;4.47;;;3.97;;